createdAt,value
2022-10-31T00:02:50.759Z,86.53
2022-10-31T00:08:10.902Z,86.79
2022-10-31T00:13:32.169Z,86.99
2022-10-31T00:18:54.046Z,87.26
2022-10-31T00:24:14.306Z,87.24
2022-10-31T00:29:35.037Z,87.48
2022-10-31T00:34:55.217Z,87.44
2022-10-31T00:40:15.695Z,87.70
2022-10-31T00:45:36.130Z,87.75
2022-10-31T00:50:57.080Z,87.95
2022-10-31T00:56:17.376Z,87.76
2022-10-31T01:01:37.933Z,88.05
2022-10-31T01:06:59.394Z,88.04
2022-10-31T01:12:19.652Z,88.06
2022-10-31T01:17:40.841Z,88.27
2022-10-31T01:23:04.928Z,88.34
2022-10-31T01:33:47.277Z,88.35
2022-10-31T01:39:11.482Z,88.67
2022-10-31T01:44:31.824Z,88.58
2022-10-31T01:49:57.323Z,88.71
2022-10-31T01:55:34.940Z,88.91
2022-10-31T02:01:01.759Z,88.56
2022-10-31T02:06:42.110Z,89.09
2022-10-31T02:12:07.146Z,88.80
2022-10-31T02:17:27.777Z,88.75
2022-10-31T02:23:20.754Z,88.99
2022-10-31T02:29:01.025Z,89.15
2022-10-31T02:34:37.542Z,88.98
2022-10-31T02:40:02.024Z,89.19
2022-10-31T02:45:46.020Z,89.28
2022-10-31T02:51:07.289Z,89.20
2022-10-31T02:56:29.928Z,89.30
2022-10-31T03:02:03.504Z,89.39
2022-10-31T03:07:51.270Z,89.66
2022-10-31T03:13:21.465Z,89.25
2022-10-31T03:18:54.774Z,89.32
2022-10-31T03:24:16.388Z,89.12
2022-10-31T03:29:39.512Z,89.41
2022-10-31T03:35:04.473Z,89.31
2022-10-31T03:40:28.458Z,89.16
2022-10-31T03:45:49.539Z,89.17
2022-10-31T03:51:23.565Z,89.21
2022-10-31T03:56:52.402Z,89.27
2022-10-31T04:02:16.972Z,89.54
2022-10-31T04:07:42.194Z,89.42
2022-10-31T04:13:08.170Z,89.21
2022-10-31T04:18:40.832Z,89.37
2022-10-31T04:24:01.593Z,89.41
2022-10-31T04:29:24.625Z,89.41
2022-10-31T04:34:45.107Z,89.20
2022-10-31T04:40:08.314Z,89.24
2022-10-31T04:46:06.855Z,89.26
2022-10-31T04:51:29.872Z,89.65
2022-10-31T04:56:50.682Z,89.36
2022-10-31T05:02:16.046Z,89.31
2022-10-31T05:07:47.101Z,89.59
2022-10-31T05:13:08.162Z,89.76
2022-10-31T05:18:37.257Z,89.61
2022-10-31T05:24:26.187Z,89.55
2022-10-31T05:29:46.616Z,89.53
2022-10-31T05:35:10.845Z,89.79
2022-10-31T05:41:03.936Z,89.75
2022-10-31T05:46:27.510Z,89.93
2022-10-31T05:52:06.235Z,89.87
2022-10-31T05:57:37.337Z,89.81
2022-10-31T06:03:00.309Z,89.52
2022-10-31T06:08:32.962Z,89.60
2022-10-31T06:14:01.286Z,89.78
2022-10-31T06:19:36.640Z,89.67
2022-10-31T06:24:57.181Z,90.04
2022-10-31T06:30:27.901Z,90.04
2022-10-31T06:35:49.670Z,90.03
2022-10-31T06:41:12.605Z,89.84
2022-10-31T06:46:37.526Z,89.95
2022-10-31T06:52:16.756Z,89.75
2022-10-31T06:57:37.161Z,89.98
2022-10-31T07:03:00.198Z,90.35
2022-10-31T07:08:20.736Z,90.27
2022-10-31T07:13:42.016Z,90.24
2022-10-31T07:19:03.140Z,90.05
2022-10-31T07:24:23.841Z,89.95
2022-10-31T07:30:18.234Z,89.96
2022-10-31T07:35:39.062Z,89.93
2022-10-31T07:40:59.670Z,89.83
2022-10-31T07:46:25.120Z,89.70
2022-10-31T07:52:04.364Z,89.07
2022-10-31T07:57:45.208Z,88.70
2022-10-31T08:03:17.301Z,88.69
2022-10-31T08:09:01.219Z,88.55
2022-10-31T08:14:21.942Z,89.03
2022-10-31T08:19:44.996Z,88.95
2022-10-31T08:25:08.554Z,89.23
2022-10-31T08:30:32.427Z,89.57
2022-10-31T08:36:11.624Z,89.24
2022-10-31T08:42:00.049Z,89.18
2022-10-31T08:47:20.671Z,89.00
2022-10-31T08:53:03.592Z,88.84
2022-10-31T08:58:24.966Z,88.62
2022-10-31T09:03:50.369Z,88.59
2022-10-31T09:09:10.957Z,88.49
2022-10-31T09:14:31.709Z,88.32
2022-10-31T09:20:11.057Z,87.65
2022-10-31T09:25:33.041Z,87.42
2022-10-31T09:31:15.886Z,87.06
2022-10-31T09:36:55.029Z,86.10
2022-10-31T09:42:33.861Z,84.89
2022-10-31T09:48:22.739Z,83.56
2022-10-31T09:54:12.269Z,83.23
2022-10-31T09:59:39.998Z,82.62
2022-10-31T10:05:04.926Z,81.52
2022-10-31T10:10:48.287Z,78.97
2022-10-31T10:16:34.472Z,79.87
2022-10-31T10:22:34.523Z,78.64
2022-10-31T10:28:22.592Z,77.74
2022-10-31T10:34:25.486Z,77.57
2022-10-31T10:39:51.085Z,76.48
2022-10-31T10:45:36.804Z,75.75
2022-10-31T10:50:58.486Z,74.37
2022-10-31T10:56:45.262Z,75.08
2022-10-31T11:02:18.350Z,76.30
2022-10-31T11:07:40.720Z,76.48
2022-10-31T11:13:04.500Z,74.93
2022-10-31T11:18:28.043Z,74.24
2022-10-31T11:23:48.263Z,74.57
2022-10-31T11:29:27.112Z,75.10
2022-10-31T11:34:51.433Z,75.68
2022-10-31T11:40:19.936Z,73.42
2022-10-31T11:45:40.572Z,70.01
2022-10-31T11:51:01.298Z,67.66
2022-10-31T11:56:21.925Z,69.58
2022-10-31T12:01:49.139Z,72.24
2022-10-31T12:07:09.867Z,73.69
2022-10-31T12:12:49.662Z,75.23
2022-10-31T12:18:15.854Z,75.69
2022-10-31T12:23:59.982Z,75.20
2022-10-31T12:29:43.061Z,75.46
2022-10-31T12:35:47.654Z,76.22
2022-10-31T12:41:19.796Z,76.28
2022-10-31T12:47:15.225Z,77.21
2022-10-31T12:52:55.846Z,76.98
2022-10-31T12:58:37.981Z,77.05
2022-10-31T13:04:15.427Z,77.20
2022-10-31T13:09:54.630Z,77.61
2022-10-31T13:15:25.181Z,77.97
2022-10-31T13:20:54.618Z,78.15
2022-10-31T13:26:35.942Z,77.58
2022-10-31T13:31:56.414Z,76.31
2022-10-31T13:37:53.661Z,75.17
2022-10-31T13:43:42.437Z,76.04
2022-10-31T13:49:03.119Z,76.54
2022-10-31T13:54:35.143Z,76.92
2022-10-31T13:59:58.405Z,78.00
2022-10-31T14:05:33.737Z,78.70
2022-10-31T14:10:56.806Z,79.43
2022-10-31T14:16:29.103Z,79.35
2022-10-31T14:21:51.047Z,79.44
2022-10-31T14:27:20.352Z,79.68
2022-10-31T14:32:40.914Z,79.48
2022-10-31T14:38:36.662Z,79.81
2022-10-31T14:44:21.526Z,80.05
2022-10-31T14:49:50.662Z,80.06
2022-10-31T14:55:14.371Z,80.61
2022-10-31T15:00:37.033Z,80.94
2022-10-31T15:06:03.138Z,80.97
2022-10-31T15:11:27.154Z,81.42
2022-10-31T15:16:47.739Z,81.73
2022-10-31T15:22:14.457Z,82.02
2022-10-31T15:27:35.133Z,81.68
2022-10-31T15:32:58.821Z,81.59
2022-10-31T15:38:19.268Z,82.32
2022-10-31T15:43:40.697Z,82.36
2022-10-31T15:49:01.543Z,82.48
2022-10-31T15:54:22.497Z,82.58
2022-10-31T15:59:47.426Z,82.85
2022-10-31T16:05:20.186Z,82.89
2022-10-31T16:10:40.761Z,82.89
2022-10-31T16:16:32.762Z,82.79
2022-10-31T16:21:44.108Z,82.56
2022-10-31T16:27:18.221Z,82.70
2022-10-31T16:32:54.803Z,82.90
2022-10-31T16:38:15.567Z,83.08
2022-10-31T16:43:35.958Z,82.96
2022-10-31T16:48:56.198Z,82.62
2022-10-31T16:54:16.486Z,82.99
2022-10-31T16:59:36.993Z,83.49
2022-10-31T17:04:57.549Z,83.69
2022-10-31T17:10:20.203Z,83.65
2022-10-31T17:15:45.048Z,83.69
2022-10-31T17:21:08.434Z,83.24
2022-10-31T17:26:29.154Z,83.35
2022-10-31T17:31:49.672Z,83.51
2022-10-31T17:37:10.989Z,83.69
2022-10-31T17:42:31.397Z,84.08
2022-10-31T17:47:53.527Z,84.05
2022-10-31T17:53:13.827Z,84.35
2022-10-31T17:58:35.853Z,84.12
2022-10-31T18:03:57.227Z,84.04
2022-10-31T18:09:17.761Z,84.11
2022-10-31T18:14:38.345Z,84.12
2022-10-31T18:19:58.867Z,83.82
2022-10-31T18:25:19.236Z,84.17
2022-10-31T18:30:41.365Z,84.13
2022-10-31T18:36:06.357Z,84.42
2022-10-31T18:41:27.061Z,84.60
2022-10-31T18:46:47.468Z,84.79
2022-10-31T18:52:07.660Z,84.90
2022-10-31T18:57:27.902Z,85.21
2022-10-31T19:02:48.445Z,85.02
2022-10-31T19:08:09.451Z,85.08
2022-10-31T19:13:31.953Z,85.27
2022-10-31T19:18:56.990Z,85.17
2022-10-31T19:24:17.258Z,85.27
2022-10-31T19:29:37.750Z,85.02
2022-10-31T19:34:57.978Z,85.07
2022-10-31T19:40:18.665Z,85.42
2022-10-31T19:45:39.278Z,85.25
2022-10-31T19:51:02.392Z,85.66
2022-10-31T19:56:24.984Z,85.55
2022-10-31T20:01:45.571Z,85.58
2022-10-31T20:07:06.506Z,85.39
2022-10-31T20:12:26.673Z,85.47
2022-10-31T20:17:47.177Z,85.41
2022-10-31T20:23:07.704Z,85.63
2022-10-31T20:28:31.041Z,85.89
2022-10-31T20:33:53.384Z,85.71
2022-10-31T20:39:14.073Z,85.81
2022-10-31T20:44:34.513Z,85.97
2022-10-31T20:49:54.775Z,85.70
2022-10-31T20:55:16.159Z,85.84
2022-10-31T21:00:37.104Z,85.91
2022-10-31T21:06:01.298Z,86.01
2022-10-31T21:11:24.453Z,85.82
2022-10-31T21:16:44.862Z,85.84
2022-10-31T21:22:05.442Z,85.66
2022-10-31T21:27:26.167Z,85.84
2022-10-31T21:32:46.870Z,85.95
2022-10-31T21:38:07.100Z,86.12
2022-10-31T21:43:28.222Z,85.92
2022-10-31T21:48:49.350Z,86.18
2022-10-31T21:54:27.696Z,86.40
2022-10-31T21:59:48.520Z,86.20
2022-10-31T22:05:09.419Z,85.95
2022-10-31T22:10:29.702Z,86.24
2022-10-31T22:15:50.401Z,86.40
2022-10-31T22:21:17.073Z,86.52
2022-10-31T22:26:38.005Z,86.29
2022-10-31T22:32:00.577Z,86.28
2022-10-31T22:37:22.116Z,86.44
2022-10-31T22:42:42.596Z,86.38
2022-10-31T22:48:04.289Z,86.45
2022-10-31T22:53:25.153Z,86.12
2022-10-31T22:58:46.349Z,86.52
2022-10-31T23:04:06.787Z,86.46
2022-10-31T23:09:27.449Z,86.68
2022-10-31T23:14:47.752Z,86.62
2022-10-31T23:20:08.691Z,86.53
2022-10-31T23:25:47.685Z,86.52
2022-10-31T23:31:08.345Z,86.59
2022-10-31T23:36:29.004Z,86.66
2022-10-31T23:41:50.122Z,86.50
2022-10-31T23:47:11.284Z,86.71
2022-10-31T23:52:31.490Z,86.75
2022-10-31T23:57:51.533Z,87.00
